»·PEaware :: N129WS KSBD-KEMT

N129WS :: KSBD-KEMT

FLIGHT INFORMATION

Flight Status: Arrived
Operator: Privately registered:
United States
More flights under this callsign
Pilot: Michael M. (12217)
Aircraft: CESSNA 172 SKYHAWK
(C172)
More flights by this aircraft type
Origin: KSBD San Bernardino Intl
United States
Destination: KEMT El Monte
United States
More flights between these airports :: More routes between these airports
Route: +
File this flight plan on PilotEdge
Remarks: CAT 7 EXAM
Altitude:
(Current/Filed)
4,500ft
Speed:
(Current/Filed)
110kts
Departed: 08-Dec-16 07:37 PM
Arrived: 08-Dec-16 08:09 PM
Distance/Time
Traveled:
40nm/0:32
Distance/Time
To Go:
Arrived

Flight Plot

Page will automatically refresh every two minutes.


Map Options




Map Legend


Flown Route
Filed Route
Departure Airport
Arrival Airport
Navaid (VOR, NDB)
Fix

Horizontal Profiles

Position Reports

Time Latitude Longitude Heading Altitude Ground
Speed
08-Dec-16 19:11 34.102763 -117.225206 89 1160ft 0kts
08-Dec-16 19:12 34.102764 -117.225176 84 1160ft 2kts
08-Dec-16 19:13 34.101689 -117.223666 106 1160ft 4kts
08-Dec-16 19:14 34.101693 -117.222969 94 1160ft 6kts
08-Dec-16 19:15 34.099782 -117.225211 246 1160ft 10kts
08-Dec-16 19:16 34.100027 -117.228580 292 1160ft 5kts
08-Dec-16 19:17 34.100942 -117.232149 283 1160ft 13kts
08-Dec-16 19:18 34.102196 -117.237248 287 1160ft 14kts
08-Dec-16 19:19 34.102828 -117.239937 290 1160ft 0kts
08-Dec-16 19:20 34.102465 -117.240565 286 1160ft 3kts
08-Dec-16 19:21 34.101069 -117.242088 184 1160ft 9kts
08-Dec-16 19:22 34.096230 -117.242166 178 1160ft 17kts
08-Dec-16 19:23 34.094186 -117.245241 251 1160ft 14kts
08-Dec-16 19:24 34.093186 -117.248553 246 1160ft 8kts
08-Dec-16 19:25 34.092363 -117.250899 207 1160ft 7kts
08-Dec-16 19:25 34.091677 -117.250741 156 1160ft 0kts
08-Dec-16 19:26 34.091677 -117.250741 156 1160ft 0kts
08-Dec-16 19:27 34.091677 -117.250741 156 1160ft 0kts
08-Dec-16 19:28 34.090928 -117.249784 64 1160ft 11kts
08-Dec-16 19:29 34.095517 -117.233973 72 1702ft 65kts
08-Dec-16 19:30 34.098386 -117.213537 86 2574ft 68kts
08-Dec-16 19:31 34.103200 -117.220190 276 3383ft 80kts
08-Dec-16 19:32 34.098310 -117.243612 267 4203ft 85kts
08-Dec-16 19:33 34.090533 -117.269973 255 4643ft 115kts
08-Dec-16 19:34 34.081549 -117.298002 254 4361ft 101kts
08-Dec-16 19:35 34.073110 -117.323223 281 4374ft 89kts
08-Dec-16 19:36 34.080525 -117.342494 312 4376ft 80kts
08-Dec-16 19:37 34.088732 -117.361266 307 4359ft 83kts
08-Dec-16 19:38 34.094245 -117.383642 293 4358ft 87kts
08-Dec-16 19:39 34.096728 -117.407178 285 4357ft 89kts
08-Dec-16 19:40 34.097893 -117.437392 278 4366ft 128kts
08-Dec-16 19:41 34.097974 -117.473477 276 4356ft 131kts
08-Dec-16 19:42 34.097415 -117.508589 276 4357ft 122kts
08-Dec-16 19:43 34.096809 -117.540035 277 4357ft 120kts
08-Dec-16 19:44 34.096177 -117.571515 276 4358ft 120kts
08-Dec-16 19:45 34.095571 -117.600943 276 4358ft 119kts
08-Dec-16 19:46 34.094951 -117.631499 277 4358ft 120kts
08-Dec-16 19:47 34.094406 -117.658542 276 4357ft 120kts
08-Dec-16 19:49 34.093798 -117.690612 276 4356ft 119kts
08-Dec-16 19:50 34.093190 -117.720810 276 4356ft 118kts
08-Dec-16 19:51 34.092521 -117.751274 276 4357ft 118kts
08-Dec-16 19:52 34.091840 -117.782373 276 4356ft 118kts
08-Dec-16 19:53 34.091138 -117.813932 276 4357ft 117kts
08-Dec-16 19:54 34.090463 -117.844616 276 4356ft 118kts
08-Dec-16 19:55 34.089737 -117.875960 276 4353ft 117kts
08-Dec-16 19:56 34.089193 -117.906945 282 3790ft 119kts
08-Dec-16 19:57 34.091213 -117.938976 291 3188ft 103kts
08-Dec-16 19:58 34.096329 -117.961888 294 2838ft 92kts
08-Dec-16 19:59 34.102554 -117.986942 294 2618ft 94kts
08-Dec-16 20:00 34.104909 -118.013909 273 1921ft 98kts
08-Dec-16 20:01 34.089265 -118.032851 200 340ft 90kts
08-Dec-16 20:02 34.081340 -118.037519 202 298ft 7kts
08-Dec-16 20:03 34.080950 -118.037234 107 298ft 0kts
08-Dec-16 20:04 34.081855 -118.036330 58 298ft 8kts
08-Dec-16 20:05 34.082064 -118.035990 52 298ft 0kts

Navigation Log

Ident Type
1. KSBD Airport
2. KEMT Airport